sensor_id;sensor_type;location;lat;lon;timestamp;temperature;humidity
26479;DHT22;14163;-26.142;27.992;2023-03-14T00:01:32;25.10;99.90
26479;DHT22;14163;-26.142;27.992;2023-03-14T00:04:01;25.00;99.90
26479;DHT22;14163;-26.142;27.992;2023-03-14T00:06:32;25.00;99.90
26479;DHT22;14163;-26.142;27.992;2023-03-14T00:09:03;24.90;99.90
26479;DHT22;14163;-26.142;27.992;2023-03-14T00:11:34;25.10;99.90
26479;DHT22;14163;-26.142;27.992;2023-03-14T00:14:03;25.20;99.90
26479;DHT22;14163;-26.142;27.992;2023-03-14T00:16:33;25.10;99.90
26479;DHT22;14163;-26.142;27.992;2023-03-14T00:19:02;25.00;99.90
26479;DHT22;14163;-26.142;27.992;2023-03-14T00:21:31;25.10;99.90
26479;DHT22;14163;-26.142;27.992;2023-03-14T00:24:00;25.00;99.90
26479;DHT22;14163;-26.142;27.992;2023-03-14T00:26:29;25.10;99.90
26479;DHT22;14163;-26.142;27.992;2023-03-14T00:29:00;25.20;99.90
26479;DHT22;14163;-26.142;27.992;2023-03-14T00:31:29;25.20;99.90
26479;DHT22;14163;-26.142;27.992;2023-03-14T00:33:59;25.00;99.90
26479;DHT22;14163;-26.142;27.992;2023-03-14T00:36:28;24.90;99.90
26479;DHT22;14163;-26.142;27.992;2023-03-14T00:38:57;24.80;99.90
26479;DHT22;14163;-26.142;27.992;2023-03-14T00:41:26;24.70;99.90
26479;DHT22;14163;-26.142;27.992;2023-03-14T00:43:56;24.70;99.90
26479;DHT22;14163;-26.142;27.992;2023-03-14T00:46:27;24.80;99.90
26479;DHT22;14163;-26.142;27.992;2023-03-14T00:48:56;24.80;99.90
26479;DHT22;14163;-26.142;27.992;2023-03-14T00:51:25;24.80;99.90
26479;DHT22;14163;-26.142;27.992;2023-03-14T00:53:54;24.90;99.90
26479;DHT22;14163;-26.142;27.992;2023-03-14T00:56:23;24.80;99.90
26479;DHT22;14163;-26.142;27.992;2023-03-14T00:58:54;24.80;99.90
26479;DHT22;14163;-26.142;27.992;2023-03-14T01:01:25;24.90;99.90
26479;DHT22;14163;-26.142;27.992;2023-03-14T01:03:55;24.80;99.90
26479;DHT22;14163;-26.142;27.992;2023-03-14T01:06:26;24.80;99.90
26479;DHT22;14163;-26.142;27.992;2023-03-14T01:08:56;24.70;99.90
26479;DHT22;14163;-26.142;27.992;2023-03-14T01:11:27;24.70;99.90
26479;DHT22;14163;-26.142;27.992;2023-03-14T01:13:57;24.60;99.90
26479;DHT22;14163;-26.142;27.992;2023-03-14T01:16:29;24.60;99.90
26479;DHT22;14163;-26.142;27.992;2023-03-14T01:18:58;24.60;99.90
26479;DHT22;14163;-26.142;27.992;2023-03-14T01:21:29;24.50;99.90
26479;DHT22;14163;-26.142;27.992;2023-03-14T01:24:00;24.40;99.90
26479;DHT22;14163;-26.142;27.992;2023-03-14T01:26:31;24.40;99.90
26479;DHT22;14163;-26.142;27.992;2023-03-14T01:29:01;24.30;99.90
26479;DHT22;14163;-26.142;27.992;2023-03-14T01:31:32;24.20;99.90
26479;DHT22;14163;-26.142;27.992;2023-03-14T01:34:02;24.20;99.90
26479;DHT22;14163;-26.142;27.992;2023-03-14T01:36:31;24.30;99.90
26479;DHT22;14163;-26.142;27.992;2023-03-14T01:39:00;24.30;99.90
26479;DHT22;14163;-26.142;27.992;2023-03-14T01:41:29;24.30;99.90
26479;DHT22;14163;-26.142;27.992;2023-03-14T01:43:59;24.30;99.90
26479;DHT22;14163;-26.142;27.992;2023-03-14T01:46:40;24.20;99.90
26479;DHT22;14163;-26.142;27.992;2023-03-14T01:49:19;24.00;99.90
26479;DHT22;14163;-26.142;27.992;2023-03-14T01:51:52;23.90;99.90
26479;DHT22;14163;-26.142;27.992;2023-03-14T01:54:26;23.90;99.90
26479;DHT22;14163;-26.142;27.992;2023-03-14T01:57:01;24.00;99.90
26479;DHT22;14163;-26.142;27.992;2023-03-14T01:59:33;24.10;99.90
26479;DHT22;14163;-26.142;27.992;2023-03-14T04:06:14;21.10;99.90
26479;DHT22;14163;-26.142;27.992;2023-03-14T04:08:43;18.50;99.90
26479;DHT22;14163;-26.142;27.992;2023-03-14T04:11:13;19.10;99.90
26479;DHT22;14163;-26.142;27.992;2023-03-14T04:13:42;20.00;99.90
26479;DHT22;14163;-26.142;27.992;2023-03-14T04:16:15;20.70;99.90
26479;DHT22;14163;-26.142;27.992;2023-03-14T04:18:45;21.30;99.90
26479;DHT22;14163;-26.142;27.992;2023-03-14T04:21:16;21.70;99.90
26479;DHT22;14163;-26.142;27.992;2023-03-14T04:23:45;22.00;99.90
26479;DHT22;14163;-26.142;27.992;2023-03-14T04:26:14;22.30;99.90
26479;DHT22;14163;-26.142;27.992;2023-03-14T04:28:44;22.40;99.90
26479;DHT22;14163;-26.142;27.992;2023-03-14T04:31:15;22.50;99.90
26479;DHT22;14163;-26.142;27.992;2023-03-14T04:33:45;22.60;99.90
26479;DHT22;14163;-26.142;27.992;2023-03-14T04:36:16;22.70;99.90
26479;DHT22;14163;-26.142;27.992;2023-03-14T04:38:45;22.70;99.90
26479;DHT22;14163;-26.142;27.992;2023-03-14T04:41:14;22.80;99.90
26479;DHT22;14163;-26.142;27.992;2023-03-14T04:43:44;22.80;99.90
26479;DHT22;14163;-26.142;27.992;2023-03-14T04:46:13;22.90;99.90
26479;DHT22;14163;-26.142;27.992;2023-03-14T04:48:42;22.90;99.90
26479;DHT22;14163;-26.142;27.992;2023-03-14T04:51:11;22.90;99.90
26479;DHT22;14163;-26.142;27.992;2023-03-14T04:53:42;23.00;99.90
26479;DHT22;14163;-26.142;27.992;2023-03-14T04:56:11;23.00;99.90
26479;DHT22;14163;-26.142;27.992;2023-03-14T04:58:41;23.00;99.90
26479;DHT22;14163;-26.142;27.992;2023-03-14T05:01:11;22.90;99.90
26479;DHT22;14163;-26.142;27.992;2023-03-14T05:03:40;23.00;99.90
26479;DHT22;14163;-26.142;27.992;2023-03-14T05:06:09;23.00;99.90
26479;DHT22;14163;-26.142;27.992;2023-03-14T05:08:39;23.00;99.90
26479;DHT22;14163;-26.142;27.992;2023-03-14T05:11:10;23.00;99.90
26479;DHT22;14163;-26.142;27.992;2023-03-14T05:13:40;23.10;99.90
26479;DHT22;14163;-26.142;27.992;2023-03-14T05:16:10;23.10;99.90
26479;DHT22;14163;-26.142;27.992;2023-03-14T05:18:40;23.20;99.90
26479;DHT22;14163;-26.142;27.992;2023-03-14T05:21:09;23.20;99.90
26479;DHT22;14163;-26.142;27.992;2023-03-14T05:23:38;23.30;99.90
26479;DHT22;14163;-26.142;27.992;2023-03-14T05:26:09;23.30;99.90
26479;DHT22;14163;-26.142;27.992;2023-03-14T05:28:38;23.30;99.90
26479;DHT22;14163;-26.142;27.992;2023-03-14T05:31:08;23.30;99.90
26479;DHT22;14163;-26.142;27.992;2023-03-14T05:33:37;23.30;99.90
26479;DHT22;14163;-26.142;27.992;2023-03-14T05:36:07;23.30;99.90
26479;DHT22;14163;-26.142;27.992;2023-03-14T05:38:37;23.40;99.90
26479;DHT22;14163;-26.142;27.992;2023-03-14T05:41:08;23.40;99.90
26479;DHT22;14163;-26.142;27.992;2023-03-14T05:43:37;23.50;99.90
26479;DHT22;14163;-26.142;27.992;2023-03-14T05:46:07;23.50;99.90
26479;DHT22;14163;-26.142;27.992;2023-03-14T05:48:36;23.60;99.90
26479;DHT22;14163;-26.142;27.992;2023-03-14T05:51:06;23.60;99.90
26479;DHT22;14163;-26.142;27.992;2023-03-14T05:53:35;23.60;99.90
26479;DHT22;14163;-26.142;27.992;2023-03-14T05:56:05;23.60;99.90
26479;DHT22;14163;-26.142;27.992;2023-03-14T05:58:36;23.70;99.90
26479;DHT22;14163;-26.142;27.992;2023-03-14T06:01:06;23.70;99.90
26479;DHT22;14163;-26.142;27.992;2023-03-14T06:03:35;23.70;99.90
26479;DHT22;14163;-26.142;27.992;2023-03-14T06:06:05;23.70;99.90
26479;DHT22;14163;-26.142;27.992;2023-03-14T06:08:34;23.70;99.90
26479;DHT22;14163;-26.142;27.992;2023-03-14T06:11:04;23.80;99.90
26479;DHT22;14163;-26.142;27.992;2023-03-14T06:13:35;24.00;99.90
26479;DHT22;14163;-26.142;27.992;2023-03-14T06:16:05;24.10;99.90
26479;DHT22;14163;-26.142;27.992;2023-03-14T06:18:34;24.20;99.90
26479;DHT22;14163;-26.142;27.992;2023-03-14T06:21:04;24.10;99.90
26479;DHT22;14163;-26.142;27.992;2023-03-14T06:23:33;23.70;99.90
26479;DHT22;14163;-26.142;27.992;2023-03-14T06:26:03;23.70;99.90
26479;DHT22;14163;-26.142;27.992;2023-03-14T06:28:32;23.40;99.90
26479;DHT22;14163;-26.142;27.992;2023-03-14T06:31:03;23.20;99.90
26479;DHT22;14163;-26.142;27.992;2023-03-14T06:33:32;23.30;99.90
26479;DHT22;14163;-26.142;27.992;2023-03-14T06:36:02;23.50;99.90
26479;DHT22;14163;-26.142;27.992;2023-03-14T06:38:31;23.50;99.90
26479;DHT22;14163;-26.142;27.992;2023-03-14T06:41:04;23.30;99.90
26479;DHT22;14163;-26.142;27.992;2023-03-14T06:43:33;23.20;99.90
26479;DHT22;14163;-26.142;27.992;2023-03-14T06:46:04;23.60;99.90
26479;DHT22;14163;-26.142;27.992;2023-03-14T06:48:34;23.90;99.90
26479;DHT22;14163;-26.142;27.992;2023-03-14T06:51:03;24.10;99.90
26479;DHT22;14163;-26.142;27.992;2023-03-14T06:53:33;24.30;99.90
26479;DHT22;14163;-26.142;27.992;2023-03-14T06:56:02;24.50;99.90
26479;DHT22;14163;-26.142;27.992;2023-03-14T06:58:31;24.70;99.90
26479;DHT22;14163;-26.142;27.992;2023-03-14T07:01:00;24.70;99.90
26479;DHT22;14163;-26.142;27.992;2023-03-14T07:03:31;24.80;99.90
26479;DHT22;14163;-26.142;27.992;2023-03-14T07:06:00;25.00;99.90
26479;DHT22;14163;-26.142;27.992;2023-03-14T07:08:30;25.00;99.90
26479;DHT22;14163;-26.142;27.992;2023-03-14T07:10:59;25.10;99.90
26479;DHT22;14163;-26.142;27.992;2023-03-14T07:13:28;25.10;99.90
26479;DHT22;14163;-26.142;27.992;2023-03-14T07:15:57;25.10;99.90
26479;DHT22;14163;-26.142;27.992;2023-03-14T07:18:27;25.20;99.90
26479;DHT22;14163;-26.142;27.992;2023-03-14T07:20:58;25.10;99.90
26479;DHT22;14163;-26.142;27.992;2023-03-14T07:23:27;25.20;99.90
26479;DHT22;14163;-26.142;27.992;2023-03-14T07:25:56;25.20;99.90
26479;DHT22;14163;-26.142;27.992;2023-03-14T07:28:25;25.30;99.90
26479;DHT22;14163;-26.142;27.992;2023-03-14T07:30:55;25.30;99.90
26479;DHT22;14163;-26.142;27.992;2023-03-14T07:33:24;25.40;99.90
26479;DHT22;14163;-26.142;27.992;2023-03-14T07:35:54;25.50;99.90
26479;DHT22;14163;-26.142;27.992;2023-03-14T07:38:25;25.30;99.90
26479;DHT22;14163;-26.142;27.992;2023-03-14T07:40:59;25.00;99.90
26479;DHT22;14163;-26.142;27.992;2023-03-14T07:43:29;24.90;99.90
26479;DHT22;14163;-26.142;27.992;2023-03-14T07:45:58;25.00;99.90
26479;DHT22;14163;-26.142;27.992;2023-03-14T07:48:27;25.10;99.90
26479;DHT22;14163;-26.142;27.992;2023-03-14T07:50:56;25.20;99.90
26479;DHT22;14163;-26.142;27.992;2023-03-14T07:53:27;25.10;99.90
26479;DHT22;14163;-26.142;27.992;2023-03-14T07:55:57;25.00;99.90
26479;DHT22;14163;-26.142;27.992;2023-03-14T07:58:26;25.10;99.90
26479;DHT22;14163;-26.142;27.992;2023-03-14T08:00:55;25.30;99.90
26479;DHT22;14163;-26.142;27.992;2023-03-14T08:03:27;25.50;99.90
26479;DHT22;14163;-26.142;27.992;2023-03-14T08:05:56;25.40;99.90
26479;DHT22;14163;-26.142;27.992;2023-03-14T08:08:27;25.60;99.90
26479;DHT22;14163;-26.142;27.992;2023-03-14T08:10:58;25.60;99.90
26479;DHT22;14163;-26.142;27.992;2023-03-14T08:13:30;25.60;99.90
26479;DHT22;14163;-26.142;27.992;2023-03-14T08:15:59;25.40;99.90
26479;DHT22;14163;-26.142;27.992;2023-03-14T08:18:29;25.60;99.90
26479;DHT22;14163;-26.142;27.992;2023-03-14T08:20:58;25.70;99.90
26479;DHT22;14163;-26.142;27.992;2023-03-14T08:23:29;25.70;99.90
26479;DHT22;14163;-26.142;27.992;2023-03-14T08:25:58;25.70;99.90
26479;DHT22;14163;-26.142;27.992;2023-03-14T08:28:28;25.70;99.90
26479;DHT22;14163;-26.142;27.992;2023-03-14T08:30:59;25.80;99.90
26479;DHT22;14163;-26.142;27.992;2023-03-14T08:33:29;25.70;99.90
26479;DHT22;14163;-26.142;27.992;2023-03-14T08:36:00;25.80;99.90
26479;DHT22;14163;-26.142;27.992;2023-03-14T08:38:31;25.90;99.90
26479;DHT22;14163;-26.142;27.992;2023-03-14T08:41:01;25.70;99.90
26479;DHT22;14163;-26.142;27.992;2023-03-14T08:43:31;25.80;99.90
26479;DHT22;14163;-26.142;27.992;2023-03-14T08:46:01;25.70;99.90
26479;DHT22;14163;-26.142;27.992;2023-03-14T08:48:30;25.30;99.90
26479;DHT22;14163;-26.142;27.992;2023-03-14T08:51:05;25.20;99.90
26479;DHT22;14163;-26.142;27.992;2023-03-14T08:53:36;25.40;99.90
26479;DHT22;14163;-26.142;27.992;2023-03-14T08:56:06;25.70;99.90
26479;DHT22;14163;-26.142;27.992;2023-03-14T08:58:36;26.00;99.90
26479;DHT22;14163;-26.142;27.992;2023-03-14T09:01:07;26.20;99.90
26479;DHT22;14163;-26.142;27.992;2023-03-14T09:03:36;26.10;99.90
26479;DHT22;14163;-26.142;27.992;2023-03-14T09:06:08;26.20;99.90
26479;DHT22;14163;-26.142;27.992;2023-03-14T09:08:39;26.30;99.90
26479;DHT22;14163;-26.142;27.992;2023-03-14T09:11:09;26.40;99.90
26479;DHT22;14163;-26.142;27.992;2023-03-14T09:13:38;26.30;99.90
26479;DHT22;14163;-26.142;27.992;2023-03-14T09:16:08;26.30;99.90
26479;DHT22;14163;-26.142;27.992;2023-03-14T09:18:38;26.40;99.90
26479;DHT22;14163;-26.142;27.992;2023-03-14T09:21:07;26.60;99.90
26479;DHT22;14163;-26.142;27.992;2023-03-14T09:23:38;26.70;99.90
26479;DHT22;14163;-26.142;27.992;2023-03-14T09:26:07;26.90;99.90
26479;DHT22;14163;-26.142;27.992;2023-03-14T09:28:37;26.90;99.90
26479;DHT22;14163;-26.142;27.992;2023-03-14T09:31:08;27.00;99.90
26479;DHT22;14163;-26.142;27.992;2023-03-14T09:33:38;27.00;99.90
26479;DHT22;14163;-26.142;27.992;2023-03-14T09:36:08;27.10;99.90
26479;DHT22;14163;-26.142;27.992;2023-03-14T09:38:39;27.10;99.90
26479;DHT22;14163;-26.142;27.992;2023-03-14T09:41:15;27.20;99.90
26479;DHT22;14163;-26.142;27.992;2023-03-14T09:43:46;27.20;99.90
26479;DHT22;14163;-26.142;27.992;2023-03-14T09:46:17;27.30;99.90
26479;DHT22;14163;-26.142;27.992;2023-03-14T09:48:47;27.40;99.90
26479;DHT22;14163;-26.142;27.992;2023-03-14T09:51:18;27.50;99.90
26479;DHT22;14163;-26.142;27.992;2023-03-14T09:53:52;27.50;99.90
26479;DHT22;14163;-26.142;27.992;2023-03-14T09:56:23;27.50;99.90
26479;DHT22;14163;-26.142;27.992;2023-03-14T09:58:55;27.70;99.90
26479;DHT22;14163;-26.142;27.992;2023-03-14T10:01:27;27.80;99.90
26479;DHT22;14163;-26.142;27.992;2023-03-14T12:04:19;32.60;91.00
26479;DHT22;14163;-26.142;27.992;2023-03-14T12:06:51;32.90;89.20
26479;DHT22;14163;-26.142;27.992;2023-03-14T12:09:22;33.80;84.30
26479;DHT22;14163;-26.142;27.992;2023-03-14T12:11:53;34.70;81.60
26479;DHT22;14163;-26.142;27.992;2023-03-14T12:14:26;35.50;77.40
26479;DHT22;14163;-26.142;27.992;2023-03-14T12:16:57;36.20;73.10
26479;DHT22;14163;-26.142;27.992;2023-03-14T12:19:36;36.80;70.40
26479;DHT22;14163;-26.142;27.992;2023-03-14T12:22:27;37.20;67.30
26479;DHT22;14163;-26.142;27.992;2023-03-14T12:25:04;37.50;65.40
26479;DHT22;14163;-26.142;27.992;2023-03-14T12:27:45;37.70;63.90
26479;DHT22;14163;-26.142;27.992;2023-03-14T12:30:24;37.90;62.70
26479;DHT22;14163;-26.142;27.992;2023-03-14T12:36:46;38.30;59.80
26479;DHT22;14163;-26.142;27.992;2023-03-14T12:39:32;38.20;59.50
26479;DHT22;14163;-26.142;27.992;2023-03-14T12:42:04;38.20;58.20
26479;DHT22;14163;-26.142;27.992;2023-03-14T12:44:45;38.30;59.00
26479;DHT22;14163;-26.142;27.992;2023-03-14T12:47:41;38.50;57.80
26479;DHT22;14163;-26.142;27.992;2023-03-14T12:50:19;38.70;58.00
26479;DHT22;14163;-26.142;27.992;2023-03-14T12:53:09;39.10;56.70
26479;DHT22;14163;-26.142;27.992;2023-03-14T12:55:46;39.30;56.20
26479;DHT22;14163;-26.142;27.992;2023-03-14T12:58:20;39.90;56.30
26479;DHT22;14163;-26.142;27.992;2023-03-14T13:00:57;40.40;56.10
26479;DHT22;14163;-26.142;27.992;2023-03-14T13:03:38;40.80;55.20
26479;DHT22;14163;-26.142;27.992;2023-03-14T13:06:09;41.20;55.20
26479;DHT22;14163;-26.142;27.992;2023-03-14T13:08:43;41.50;54.80
26479;DHT22;14163;-26.142;27.992;2023-03-14T13:11:16;41.80;53.50
26479;DHT22;14163;-26.142;27.992;2023-03-14T13:13:49;42.00;52.00
26479;DHT22;14163;-26.142;27.992;2023-03-14T13:16:19;42.10;52.50
26479;DHT22;14163;-26.142;27.992;2023-03-14T13:18:49;42.30;52.50
26479;DHT22;14163;-26.142;27.992;2023-03-14T13:21:21;42.30;51.90
26479;DHT22;14163;-26.142;27.992;2023-03-14T13:24:00;42.10;51.20
26479;DHT22;14163;-26.142;27.992;2023-03-14T13:26:35;41.30;51.50
26479;DHT22;14163;-26.142;27.992;2023-03-14T13:29:17;40.70;51.30
26479;DHT22;14163;-26.142;27.992;2023-03-14T13:31:47;39.90;51.20
26479;DHT22;14163;-26.142;27.992;2023-03-14T13:34:16;39.20;51.40
26479;DHT22;14163;-26.142;27.992;2023-03-14T13:36:46;38.60;52.10
26479;DHT22;14163;-26.142;27.992;2023-03-14T13:39:19;37.90;51.90
26479;DHT22;14163;-26.142;27.992;2023-03-14T13:41:48;37.70;53.10
26479;DHT22;14163;-26.142;27.992;2023-03-14T13:44:21;37.60;52.90
26479;DHT22;14163;-26.142;27.992;2023-03-14T13:46:53;37.40;53.50
26479;DHT22;14163;-26.142;27.992;2023-03-14T13:49:26;37.30;53.40
26479;DHT22;14163;-26.142;27.992;2023-03-14T13:51:59;37.10;53.90
26479;DHT22;14163;-26.142;27.992;2023-03-14T13:54:31;36.90;54.60
26479;DHT22;14163;-26.142;27.992;2023-03-14T13:57:02;36.80;54.50
26479;DHT22;14163;-26.142;27.992;2023-03-14T13:59:32;36.50;55.00
26479;DHT22;14163;-26.142;27.992;2023-03-14T14:02:06;36.40;55.20
26479;DHT22;14163;-26.142;27.992;2023-03-14T14:04:40;36.40;55.60
26479;DHT22;14163;-26.142;27.992;2023-03-14T14:07:10;36.30;55.10
26479;DHT22;14163;-26.142;27.992;2023-03-14T14:09:47;36.20;55.30
26479;DHT22;14163;-26.142;27.992;2023-03-14T14:12:18;36.10;54.30
26479;DHT22;14163;-26.142;27.992;2023-03-14T14:14:53;35.90;54.10
26479;DHT22;14163;-26.142;27.992;2023-03-14T14:17:26;35.70;54.40
26479;DHT22;14163;-26.142;27.992;2023-03-14T14:19:57;35.60;55.00
26479;DHT22;14163;-26.142;27.992;2023-03-14T14:22:27;35.50;55.20
26479;DHT22;14163;-26.142;27.992;2023-03-14T14:24:59;35.40;55.80
26479;DHT22;14163;-26.142;27.992;2023-03-14T14:27:32;35.30;55.90
26479;DHT22;14163;-26.142;27.992;2023-03-14T14:30:04;35.20;56.00
26479;DHT22;14163;-26.142;27.992;2023-03-14T14:32:38;35.10;55.70
26479;DHT22;14163;-26.142;27.992;2023-03-14T14:35:21;35.00;56.00
26479;DHT22;14163;-26.142;27.992;2023-03-14T14:37:50;34.90;56.10
26479;DHT22;14163;-26.142;27.992;2023-03-14T14:40:24;34.80;56.60
26479;DHT22;14163;-26.142;27.992;2023-03-14T14:42:54;34.80;56.20
26479;DHT22;14163;-26.142;27.992;2023-03-14T14:45:25;35.00;55.90
26479;DHT22;14163;-26.142;27.992;2023-03-14T14:48:02;35.00;55.50
26479;DHT22;14163;-26.142;27.992;2023-03-14T14:50:33;35.00;55.70
26479;DHT22;14163;-26.142;27.992;2023-03-14T14:53:19;34.90;55.60
26479;DHT22;14163;-26.142;27.992;2023-03-14T14:55:53;34.80;56.00
26479;DHT22;14163;-26.142;27.992;2023-03-14T14:58:26;34.70;56.00
26479;DHT22;14163;-26.142;27.992;2023-03-14T15:01:02;34.60;56.30
26479;DHT22;14163;-26.142;27.992;2023-03-14T15:03:33;34.50;56.60
26479;DHT22;14163;-26.142;27.992;2023-03-14T15:06:03;34.50;56.00
26479;DHT22;14163;-26.142;27.992;2023-03-14T15:08:33;34.40;56.20
26479;DHT22;14163;-26.142;27.992;2023-03-14T15:11:04;34.40;56.20
26479;DHT22;14163;-26.142;27.992;2023-03-14T15:13:33;34.30;56.80
26479;DHT22;14163;-26.142;27.992;2023-03-14T15:16:02;34.30;56.30
26479;DHT22;14163;-26.142;27.992;2023-03-14T15:18:32;34.20;56.30
26479;DHT22;14163;-26.142;27.992;2023-03-14T15:21:01;34.20;56.40
26479;DHT22;14163;-26.142;27.992;2023-03-14T15:23:30;34.10;56.20
26479;DHT22;14163;-26.142;27.992;2023-03-14T15:25:59;34.00;56.00
26479;DHT22;14163;-26.142;27.992;2023-03-14T15:28:31;33.80;55.60
26479;DHT22;14163;-26.142;27.992;2023-03-14T15:31:00;33.80;55.50
26479;DHT22;14163;-26.142;27.992;2023-03-14T15:33:29;33.70;55.30
26479;DHT22;14163;-26.142;27.992;2023-03-14T15:35:59;33.60;55.30
26479;DHT22;14163;-26.142;27.992;2023-03-14T15:38:28;33.40;55.70
26479;DHT22;14163;-26.142;27.992;2023-03-14T15:40:58;33.40;55.90
26479;DHT22;14163;-26.142;27.992;2023-03-14T15:43:27;33.40;55.80
26479;DHT22;14163;-26.142;27.992;2023-03-14T15:45:58;33.30;56.20
26479;DHT22;14163;-26.142;27.992;2023-03-14T15:48:27;33.30;56.60
26479;DHT22;14163;-26.142;27.992;2023-03-14T15:50:56;33.20;57.00
26479;DHT22;14163;-26.142;27.992;2023-03-14T15:53:26;33.10;56.90
26479;DHT22;14163;-26.142;27.992;2023-03-14T15:55:55;33.10;56.80
26479;DHT22;14163;-26.142;27.992;2023-03-14T15:58:24;33.10;57.00
26479;DHT22;14163;-26.142;27.992;2023-03-14T16:00:53;33.00;57.60
26479;DHT22;14163;-26.142;27.992;2023-03-14T16:03:24;33.00;57.80
26479;DHT22;14163;-26.142;27.992;2023-03-14T16:05:54;32.90;58.00
26479;DHT22;14163;-26.142;27.992;2023-03-14T16:08:23;32.90;58.20
26479;DHT22;14163;-26.142;27.992;2023-03-14T16:10:55;32.90;58.40
26479;DHT22;14163;-26.142;27.992;2023-03-14T16:13:26;32.80;58.00
26479;DHT22;14163;-26.142;27.992;2023-03-14T16:15:57;32.70;57.70
26479;DHT22;14163;-26.142;27.992;2023-03-14T16:18:31;32.60;57.80
26479;DHT22;14163;-26.142;27.992;2023-03-14T16:21:01;32.50;57.90
26479;DHT22;14163;-26.142;27.992;2023-03-14T16:23:32;32.50;58.10
26479;DHT22;14163;-26.142;27.992;2023-03-14T16:26:04;32.30;57.80
26479;DHT22;14163;-26.142;27.992;2023-03-14T16:28:33;32.30;58.00
26479;DHT22;14163;-26.142;27.992;2023-03-14T16:31:05;32.30;58.30
26479;DHT22;14163;-26.142;27.992;2023-03-14T16:33:36;32.20;58.30
26479;DHT22;14163;-26.142;27.992;2023-03-14T16:36:07;32.10;58.20
26479;DHT22;14163;-26.142;27.992;2023-03-14T16:38:38;32.10;58.60
26479;DHT22;14163;-26.142;27.992;2023-03-14T16:41:10;32.00;58.70
26479;DHT22;14163;-26.142;27.992;2023-03-14T16:43:40;32.00;58.60
26479;DHT22;14163;-26.142;27.992;2023-03-14T16:46:13;31.90;59.10
26479;DHT22;14163;-26.142;27.992;2023-03-14T16:48:47;31.90;59.30
26479;DHT22;14163;-26.142;27.992;2023-03-14T16:51:16;31.90;59.50
26479;DHT22;14163;-26.142;27.992;2023-03-14T16:53:45;31.90;60.00
26479;DHT22;14163;-26.142;27.992;2023-03-14T16:56:15;31.80;60.00
26479;DHT22;14163;-26.142;27.992;2023-03-14T16:58:44;31.70;59.80
26479;DHT22;14163;-26.142;27.992;2023-03-14T17:01:15;31.50;60.30
26479;DHT22;14163;-26.142;27.992;2023-03-14T17:03:48;31.40;60.80
26479;DHT22;14163;-26.142;27.992;2023-03-14T17:06:19;31.30;60.70
26479;DHT22;14163;-26.142;27.992;2023-03-14T17:08:49;31.20;62.20
26479;DHT22;14163;-26.142;27.992;2023-03-14T17:11:19;31.10;61.80
26479;DHT22;14163;-26.142;27.992;2023-03-14T17:13:48;31.10;62.40
26479;DHT22;14163;-26.142;27.992;2023-03-14T17:16:17;31.00;61.80
26479;DHT22;14163;-26.142;27.992;2023-03-14T17:18:48;30.90;62.10
26479;DHT22;14163;-26.142;27.992;2023-03-14T17:21:18;30.80;62.60
26479;DHT22;14163;-26.142;27.992;2023-03-14T17:23:47;30.70;62.50
26479;DHT22;14163;-26.142;27.992;2023-03-14T17:26:16;30.50;62.90
26479;DHT22;14163;-26.142;27.992;2023-03-14T17:28:46;30.50;63.60
26479;DHT22;14163;-26.142;27.992;2023-03-14T17:31:16;30.50;63.60
26479;DHT22;14163;-26.142;27.992;2023-03-14T17:33:48;30.60;63.30
26479;DHT22;14163;-26.142;27.992;2023-03-14T17:38:04;30.60;63.20
26479;DHT22;14163;-26.142;27.992;2023-03-14T17:40:33;30.50;64.70
26479;DHT22;14163;-26.142;27.992;2023-03-14T17:43:03;30.30;64.70
26479;DHT22;14163;-26.142;27.992;2023-03-14T17:45:32;30.10;65.30
26479;DHT22;14163;-26.142;27.992;2023-03-14T17:48:02;30.00;64.90
26479;DHT22;14163;-26.142;27.992;2023-03-14T17:50:32;30.10;65.00
26479;DHT22;14163;-26.142;27.992;2023-03-14T17:53:03;30.00;65.00
26479;DHT22;14163;-26.142;27.992;2023-03-14T17:55:33;30.10;64.80
26479;DHT22;14163;-26.142;27.992;2023-03-14T17:58:04;30.10;65.30
26479;DHT22;14163;-26.142;27.992;2023-03-14T18:00:34;30.00;66.50
26479;DHT22;14163;-26.142;27.992;2023-03-14T18:03:03;29.80;66.60
26479;DHT22;14163;-26.142;27.992;2023-03-14T18:05:33;29.80;67.40
26479;DHT22;14163;-26.142;27.992;2023-03-14T18:08:07;29.70;67.70
26479;DHT22;14163;-26.142;27.992;2023-03-14T18:10:39;29.60;67.70
26479;DHT22;14163;-26.142;27.992;2023-03-14T18:13:09;29.60;68.10
26479;DHT22;14163;-26.142;27.992;2023-03-14T18:15:38;29.40;68.50
26479;DHT22;14163;-26.142;27.992;2023-03-14T18:18:07;29.30;67.80
26479;DHT22;14163;-26.142;27.992;2023-03-14T18:20:36;29.30;68.00
26479;DHT22;14163;-26.142;27.992;2023-03-14T18:23:07;29.20;67.90
26479;DHT22;14163;-26.142;27.992;2023-03-14T18:25:36;29.20;68.40
26479;DHT22;14163;-26.142;27.992;2023-03-14T18:28:06;29.20;68.50
26479;DHT22;14163;-26.142;27.992;2023-03-14T18:30:35;29.20;67.80
26479;DHT22;14163;-26.142;27.992;2023-03-14T18:33:04;29.20;67.50
26479;DHT22;14163;-26.142;27.992;2023-03-14T18:35:35;29.10;68.30
26479;DHT22;14163;-26.142;27.992;2023-03-14T18:38:06;29.10;68.40
26479;DHT22;14163;-26.142;27.992;2023-03-14T18:40:35;29.00;68.60
26479;DHT22;14163;-26.142;27.992;2023-03-14T18:43:04;28.90;68.90
26479;DHT22;14163;-26.142;27.992;2023-03-14T18:45:34;28.80;69.40
26479;DHT22;14163;-26.142;27.992;2023-03-14T18:48:03;28.80;69.80
26479;DHT22;14163;-26.142;27.992;2023-03-14T18:50:33;28.80;70.10
26479;DHT22;14163;-26.142;27.992;2023-03-14T18:53:02;28.70;69.90
26479;DHT22;14163;-26.142;27.992;2023-03-14T18:55:33;28.60;70.20
26479;DHT22;14163;-26.142;27.992;2023-03-14T18:58:02;28.60;70.30
26479;DHT22;14163;-26.142;27.992;2023-03-14T19:00:32;28.60;70.50
26479;DHT22;14163;-26.142;27.992;2023-03-14T19:03:03;28.60;70.10
26479;DHT22;14163;-26.142;27.992;2023-03-14T19:05:32;28.60;71.10
26479;DHT22;14163;-26.142;27.992;2023-03-14T19:08:01;28.70;69.80
26479;DHT22;14163;-26.142;27.992;2023-03-14T19:10:32;28.70;69.20
26479;DHT22;14163;-26.142;27.992;2023-03-14T19:13:01;28.70;69.00
26479;DHT22;14163;-26.142;27.992;2023-03-14T19:15:31;28.70;68.00
26479;DHT22;14163;-26.142;27.992;2023-03-14T19:18:00;28.70;67.90
26479;DHT22;14163;-26.142;27.992;2023-03-14T19:20:29;28.70;67.70
26479;DHT22;14163;-26.142;27.992;2023-03-14T19:22:59;28.70;68.20
26479;DHT22;14163;-26.142;27.992;2023-03-14T19:25:29;28.70;68.50
26479;DHT22;14163;-26.142;27.992;2023-03-14T19:28:00;28.70;68.10
26479;DHT22;14163;-26.142;27.992;2023-03-14T19:30:29;28.60;68.60
26479;DHT22;14163;-26.142;27.992;2023-03-14T19:33:00;28.50;69.10
26479;DHT22;14163;-26.142;27.992;2023-03-14T19:35:29;28.50;69.50